sensor_id;sensor_type;location;lat;lon;timestamp;P1;durP1;ratioP1;P2;durP2;ratioP2
49440;SDS011;35317;51.978;6.296;2022-07-01T00:01:06;26.73;;;15.70;;
49440;SDS011;35317;51.978;6.296;2022-07-01T00:06:06;31.40;;;17.13;;
49440;SDS011;35317;51.978;6.296;2022-07-01T00:11:07;30.42;;;17.02;;
49440;SDS011;35317;51.978;6.296;2022-07-01T00:16:08;38.35;;;21.15;;
49440;SDS011;35317;51.978;6.296;2022-07-01T00:21:09;41.60;;;22.05;;
49440;SDS011;35317;51.978;6.296;2022-07-01T00:26:09;41.92;;;23.17;;
49440;SDS011;35317;51.978;6.296;2022-07-01T00:31:10;50.65;;;25.13;;
49440;SDS011;35317;51.978;6.296;2022-07-01T00:36:11;54.58;;;27.27;;
49440;SDS011;35317;51.978;6.296;2022-07-01T00:41:12;50.72;;;27.00;;
49440;SDS011;35317;51.978;6.296;2022-07-01T00:46:12;52.70;;;29.35;;
49440;SDS011;35317;51.978;6.296;2022-07-01T00:51:13;55.67;;;29.95;;
49440;SDS011;35317;51.978;6.296;2022-07-01T00:56:14;58.17;;;28.95;;
49440;SDS011;35317;51.978;6.296;2022-07-01T01:01:16;54.53;;;28.80;;
49440;SDS011;35317;51.978;6.296;2022-07-01T01:06:16;53.70;;;28.35;;
49440;SDS011;35317;51.978;6.296;2022-07-01T01:11:17;55.45;;;29.00;;
49440;SDS011;35317;51.978;6.296;2022-07-01T01:16:22;59.00;;;30.42;;
49440;SDS011;35317;51.978;6.296;2022-07-01T01:21:23;55.45;;;29.27;;
49440;SDS011;35317;51.978;6.296;2022-07-01T01:26:24;56.17;;;31.23;;
49440;SDS011;35317;51.978;6.296;2022-07-01T01:31:29;76.32;;;36.50;;
49440;SDS011;35317;51.978;6.296;2022-07-01T01:36:33;81.20;;;39.83;;
49440;SDS011;35317;51.978;6.296;2022-07-01T01:41:34;69.55;;;37.55;;
49440;SDS011;35317;51.978;6.296;2022-07-01T01:46:34;79.00;;;40.17;;
49440;SDS011;35317;51.978;6.296;2022-07-01T01:51:36;75.43;;;37.17;;
49440;SDS011;35317;51.978;6.296;2022-07-01T01:56:37;74.90;;;37.85;;
49440;SDS011;35317;51.978;6.296;2022-07-01T02:01:38;74.80;;;37.08;;
49440;SDS011;35317;51.978;6.296;2022-07-01T02:06:39;85.90;;;39.60;;
49440;SDS011;35317;51.978;6.296;2022-07-01T02:11:42;88.05;;;40.10;;
49440;SDS011;35317;51.978;6.296;2022-07-01T02:16:43;100.20;;;43.30;;
49440;SDS011;35317;51.978;6.296;2022-07-01T02:21:44;97.18;;;43.05;;
49440;SDS011;35317;51.978;6.296;2022-07-01T02:26:45;98.45;;;43.05;;
49440;SDS011;35317;51.978;6.296;2022-07-01T02:31:46;100.10;;;44.65;;
49440;SDS011;35317;51.978;6.296;2022-07-01T02:36:47;101.72;;;43.92;;
49440;SDS011;35317;51.978;6.296;2022-07-01T02:41:48;94.55;;;43.25;;
49440;SDS011;35317;51.978;6.296;2022-07-01T02:47:07;99.22;;;44.17;;
49440;SDS011;35317;51.978;6.296;2022-07-01T02:52:08;106.20;;;45.85;;
49440;SDS011;35317;51.978;6.296;2022-07-01T02:57:09;100.28;;;43.72;;
49440;SDS011;35317;51.978;6.296;2022-07-01T03:02:10;81.85;;;41.67;;
49440;SDS011;35317;51.978;6.296;2022-07-01T03:07:10;90.70;;;42.30;;
49440;SDS011;35317;51.978;6.296;2022-07-01T03:12:11;86.18;;;42.67;;
49440;SDS011;35317;51.978;6.296;2022-07-01T03:17:25;79.57;;;40.50;;
49440;SDS011;35317;51.978;6.296;2022-07-01T03:22:29;75.70;;;40.08;;
49440;SDS011;35317;51.978;6.296;2022-07-01T03:27:31;88.25;;;40.92;;
49440;SDS011;35317;51.978;6.296;2022-07-01T03:32:33;73.22;;;39.22;;
49440;SDS011;35317;51.978;6.296;2022-07-01T03:37:34;84.65;;;40.90;;
49440;SDS011;35317;51.978;6.296;2022-07-01T03:42:34;81.22;;;40.47;;
49440;SDS011;35317;51.978;6.296;2022-07-01T03:47:35;81.13;;;39.88;;
49440;SDS011;35317;51.978;6.296;2022-07-01T03:52:36;75.25;;;39.45;;
49440;SDS011;35317;51.978;6.296;2022-07-01T03:57:37;75.93;;;36.75;;
49440;SDS011;35317;51.978;6.296;2022-07-01T04:02:37;78.50;;;38.55;;
49440;SDS011;35317;51.978;6.296;2022-07-01T04:07:38;69.10;;;34.45;;
49440;SDS011;35317;51.978;6.296;2022-07-01T04:12:39;61.70;;;32.70;;
49440;SDS011;35317;51.978;6.296;2022-07-01T04:17:40;66.97;;;32.70;;
49440;SDS011;35317;51.978;6.296;2022-07-01T04:22:42;56.17;;;28.95;;
49440;SDS011;35317;51.978;6.296;2022-07-01T04:27:42;55.20;;;28.33;;
49440;SDS011;35317;51.978;6.296;2022-07-01T04:32:43;54.33;;;28.58;;
49440;SDS011;35317;51.978;6.296;2022-07-01T04:37:44;55.47;;;29.52;;
49440;SDS011;35317;51.978;6.296;2022-07-01T04:42:45;61.38;;;30.85;;
49440;SDS011;35317;51.978;6.296;2022-07-01T04:47:46;53.67;;;28.45;;
49440;SDS011;35317;51.978;6.296;2022-07-01T04:52:47;60.30;;;31.42;;
49440;SDS011;35317;51.978;6.296;2022-07-01T04:57:48;59.75;;;29.95;;
49440;SDS011;35317;51.978;6.296;2022-07-01T05:02:48;51.45;;;28.48;;
49440;SDS011;35317;51.978;6.296;2022-07-01T05:07:49;42.30;;;25.58;;
49440;SDS011;35317;51.978;6.296;2022-07-01T05:12:50;36.58;;;22.00;;
49440;SDS011;35317;51.978;6.296;2022-07-01T05:17:50;44.08;;;24.48;;
49440;SDS011;35317;51.978;6.296;2022-07-01T05:23:10;38.03;;;22.10;;
49440;SDS011;35317;51.978;6.296;2022-07-01T05:28:11;32.75;;;21.85;;
49440;SDS011;35317;51.978;6.296;2022-07-01T05:33:11;36.90;;;21.63;;
49440;SDS011;35317;51.978;6.296;2022-07-01T05:38:12;37.65;;;21.65;;
49440;SDS011;35317;51.978;6.296;2022-07-01T05:43:13;37.40;;;21.65;;
49440;SDS011;35317;51.978;6.296;2022-07-01T05:48:14;34.75;;;21.00;;
49440;SDS011;35317;51.978;6.296;2022-07-01T05:53:15;37.13;;;22.13;;
49440;SDS011;35317;51.978;6.296;2022-07-01T05:58:16;35.45;;;20.73;;
49440;SDS011;35317;51.978;6.296;2022-07-01T06:03:17;37.67;;;21.90;;
49440;SDS011;35317;51.978;6.296;2022-07-01T06:08:17;30.95;;;20.42;;
49440;SDS011;35317;51.978;6.296;2022-07-01T06:13:18;35.00;;;21.02;;
49440;SDS011;35317;51.978;6.296;2022-07-01T06:18:19;33.90;;;20.95;;
49440;SDS011;35317;51.978;6.296;2022-07-01T06:23:19;36.05;;;19.38;;
49440;SDS011;35317;51.978;6.296;2022-07-01T06:28:20;33.88;;;20.67;;
49440;SDS011;35317;51.978;6.296;2022-07-01T06:33:21;32.08;;;18.65;;
49440;SDS011;35317;51.978;6.296;2022-07-01T06:38:22;29.35;;;19.42;;
49440;SDS011;35317;51.978;6.296;2022-07-01T06:43:23;32.45;;;19.15;;
49440;SDS011;35317;51.978;6.296;2022-07-01T06:48:24;24.20;;;15.98;;
49440;SDS011;35317;51.978;6.296;2022-07-01T06:53:25;27.13;;;17.05;;
49440;SDS011;35317;51.978;6.296;2022-07-01T06:58:26;24.33;;;17.00;;
49440;SDS011;35317;51.978;6.296;2022-07-01T07:03:27;25.67;;;17.05;;
49440;SDS011;35317;51.978;6.296;2022-07-01T07:08:31;24.10;;;16.73;;
49440;SDS011;35317;51.978;6.296;2022-07-01T07:13:33;24.48;;;17.33;;
49440;SDS011;35317;51.978;6.296;2022-07-01T07:18:33;28.05;;;16.75;;
49440;SDS011;35317;51.978;6.296;2022-07-01T07:23:34;26.83;;;17.27;;
49440;SDS011;35317;51.978;6.296;2022-07-01T07:28:35;26.77;;;15.57;;
49440;SDS011;35317;51.978;6.296;2022-07-01T07:33:37;22.15;;;14.90;;
49440;SDS011;35317;51.978;6.296;2022-07-01T07:38:38;19.17;;;13.65;;
49440;SDS011;35317;51.978;6.296;2022-07-01T07:43:39;22.90;;;14.75;;
49440;SDS011;35317;51.978;6.296;2022-07-01T07:48:40;22.42;;;13.57;;
49440;SDS011;35317;51.978;6.296;2022-07-01T07:53:43;18.33;;;12.32;;
49440;SDS011;35317;51.978;6.296;2022-07-01T07:58:44;17.05;;;11.90;;
49440;SDS011;35317;51.978;6.296;2022-07-01T08:03:45;16.65;;;11.55;;
49440;SDS011;35317;51.978;6.296;2022-07-01T08:08:46;18.60;;;11.93;;
49440;SDS011;35317;51.978;6.296;2022-07-01T08:13:46;19.42;;;11.63;;
49440;SDS011;35317;51.978;6.296;2022-07-01T08:18:47;18.45;;;11.35;;
49440;SDS011;35317;51.978;6.296;2022-07-01T08:23:49;14.70;;;11.15;;
49440;SDS011;35317;51.978;6.296;2022-07-01T08:28:50;15.50;;;9.75;;
49440;SDS011;35317;51.978;6.296;2022-07-01T08:33:50;14.90;;;9.45;;
49440;SDS011;35317;51.978;6.296;2022-07-01T08:38:51;12.40;;;9.98;;
49440;SDS011;35317;51.978;6.296;2022-07-01T08:43:53;14.00;;;10.25;;
49440;SDS011;35317;51.978;6.296;2022-07-01T08:48:54;12.20;;;8.73;;
49440;SDS011;35317;51.978;6.296;2022-07-01T08:53:55;12.43;;;9.32;;
49440;SDS011;35317;51.978;6.296;2022-07-01T08:58:55;11.23;;;7.55;;
49440;SDS011;35317;51.978;6.296;2022-07-01T09:03:56;10.85;;;5.93;;
49440;SDS011;35317;51.978;6.296;2022-07-01T09:09:19;10.02;;;6.63;;
49440;SDS011;35317;51.978;6.296;2022-07-01T09:14:22;9.02;;;6.75;;
49440;SDS011;35317;51.978;6.296;2022-07-01T09:19:26;6.68;;;4.97;;
49440;SDS011;35317;51.978;6.296;2022-07-01T09:29:35;4.50;;;3.23;;
49440;SDS011;35317;51.978;6.296;2022-07-01T09:34:39;6.65;;;4.00;;
49440;SDS011;35317;51.978;6.296;2022-07-01T09:39:46;6.60;;;4.63;;
49440;SDS011;35317;51.978;6.296;2022-07-01T09:50:07;5.15;;;2.90;;
49440;SDS011;35317;51.978;6.296;2022-07-01T09:55:09;5.25;;;3.25;;
49440;SDS011;35317;51.978;6.296;2022-07-01T10:00:12;6.32;;;3.20;;
49440;SDS011;35317;51.978;6.296;2022-07-01T10:05:15;6.20;;;3.78;;
49440;SDS011;35317;51.978;6.296;2022-07-01T10:15:49;6.22;;;3.28;;
49440;SDS011;35317;51.978;6.296;2022-07-01T10:20:51;4.35;;;2.60;;
49440;SDS011;35317;51.978;6.296;2022-07-01T10:25:57;5.55;;;2.60;;
49440;SDS011;35317;51.978;6.296;2022-07-01T10:31:04;6.47;;;3.10;;
49440;SDS011;35317;51.978;6.296;2022-07-01T10:36:11;6.97;;;3.03;;
49440;SDS011;35317;51.978;6.296;2022-07-01T10:41:22;8.15;;;3.10;;
49440;SDS011;35317;51.978;6.296;2022-07-01T10:51:54;4.97;;;2.10;;
49440;SDS011;35317;51.978;6.296;2022-07-01T10:56:57;5.72;;;2.90;;
49440;SDS011;35317;51.978;6.296;2022-07-01T11:02:25;6.97;;;1.88;;
49440;SDS011;35317;51.978;6.296;2022-07-01T11:07:29;2.92;;;1.50;;
49440;SDS011;35317;51.978;6.296;2022-07-01T11:12:32;6.28;;;1.80;;
49440;SDS011;35317;51.978;6.296;2022-07-01T11:17:34;4.72;;;1.42;;
49440;SDS011;35317;51.978;6.296;2022-07-01T11:22:35;4.05;;;1.33;;
49440;SDS011;35317;51.978;6.296;2022-07-01T11:27:36;2.40;;;1.13;;
49440;SDS011;35317;51.978;6.296;2022-07-01T11:32:46;1.92;;;1.00;;
49440;SDS011;35317;51.978;6.296;2022-07-01T11:43:49;3.70;;;1.08;;
49440;SDS011;35317;51.978;6.296;2022-07-01T11:48:51;4.00;;;0.90;;
49440;SDS011;35317;51.978;6.296;2022-07-01T11:53:54;3.10;;;1.00;;
49440;SDS011;35317;51.978;6.296;2022-07-01T11:58:56;2.83;;;0.75;;
49440;SDS011;35317;51.978;6.296;2022-07-01T12:03:58;2.38;;;1.02;;
49440;SDS011;35317;51.978;6.296;2022-07-01T12:09:02;2.55;;;0.70;;
49440;SDS011;35317;51.978;6.296;2022-07-01T12:14:03;2.17;;;0.90;;
49440;SDS011;35317;51.978;6.296;2022-07-01T12:19:04;2.33;;;1.02;;
49440;SDS011;35317;51.978;6.296;2022-07-01T12:24:06;2.97;;;0.80;;
49440;SDS011;35317;51.978;6.296;2022-07-01T12:29:09;3.15;;;0.77;;
49440;SDS011;35317;51.978;6.296;2022-07-01T12:34:10;3.88;;;0.90;;
49440;SDS011;35317;51.978;6.296;2022-07-01T12:39:12;4.05;;;1.10;;
49440;SDS011;35317;51.978;6.296;2022-07-01T12:44:23;2.80;;;0.80;;
49440;SDS011;35317;51.978;6.296;2022-07-01T12:49:25;3.35;;;0.93;;
49440;SDS011;35317;51.978;6.296;2022-07-01T12:54:31;2.58;;;0.70;;
49440;SDS011;35317;51.978;6.296;2022-07-01T12:59:34;3.67;;;0.98;;
49440;SDS011;35317;51.978;6.296;2022-07-01T13:04:35;2.75;;;0.65;;
49440;SDS011;35317;51.978;6.296;2022-07-01T13:09:38;2.30;;;0.77;;
49440;SDS011;35317;51.978;6.296;2022-07-01T13:14:39;3.05;;;0.90;;
49440;SDS011;35317;51.978;6.296;2022-07-01T13:19:40;3.78;;;0.88;;
49440;SDS011;35317;51.978;6.296;2022-07-01T13:24:41;3.83;;;0.88;;
49440;SDS011;35317;51.978;6.296;2022-07-01T13:29:42;2.28;;;0.80;;
49440;SDS011;35317;51.978;6.296;2022-07-01T13:34:43;4.63;;;0.70;;
49440;SDS011;35317;51.978;6.296;2022-07-01T13:39:44;2.78;;;0.77;;
49440;SDS011;35317;51.978;6.296;2022-07-01T13:44:44;2.95;;;1.10;;
49440;SDS011;35317;51.978;6.296;2022-07-01T13:49:45;2.90;;;0.80;;
49440;SDS011;35317;51.978;6.296;2022-07-01T13:54:46;3.90;;;1.00;;
49440;SDS011;35317;51.978;6.296;2022-07-01T13:59:47;2.40;;;0.60;;
49440;SDS011;35317;51.978;6.296;2022-07-01T14:04:47;4.07;;;1.02;;
49440;SDS011;35317;51.978;6.296;2022-07-01T14:09:50;2.85;;;0.77;;
49440;SDS011;35317;51.978;6.296;2022-07-01T14:14:51;3.42;;;1.10;;
49440;SDS011;35317;51.978;6.296;2022-07-01T14:19:54;4.78;;;1.00;;
49440;SDS011;35317;51.978;6.296;2022-07-01T14:24:56;4.00;;;1.63;;
49440;SDS011;35317;51.978;6.296;2022-07-01T14:29:57;5.93;;;1.08;;
49440;SDS011;35317;51.978;6.296;2022-07-01T14:34:58;4.13;;;1.13;;
49440;SDS011;35317;51.978;6.296;2022-07-01T14:40:02;2.88;;;0.98;;
49440;SDS011;35317;51.978;6.296;2022-07-01T14:45:03;4.47;;;0.82;;
49440;SDS011;35317;51.978;6.296;2022-07-01T14:50:07;4.43;;;0.75;;
49440;SDS011;35317;51.978;6.296;2022-07-01T14:55:08;1.25;;;0.63;;
49440;SDS011;35317;51.978;6.296;2022-07-01T15:00:10;1.90;;;0.70;;
49440;SDS011;35317;51.978;6.296;2022-07-01T15:05:12;3.83;;;1.00;;
49440;SDS011;35317;51.978;6.296;2022-07-01T15:10:13;2.88;;;0.63;;
49440;SDS011;35317;51.978;6.296;2022-07-01T15:15:13;2.60;;;0.80;;
49440;SDS011;35317;51.978;6.296;2022-07-01T15:20:15;3.22;;;0.70;;
49440;SDS011;35317;51.978;6.296;2022-07-01T15:25:16;3.00;;;0.82;;
49440;SDS011;35317;51.978;6.296;2022-07-01T15:30:19;3.47;;;1.40;;
49440;SDS011;35317;51.978;6.296;2022-07-01T15:35:20;2.60;;;0.90;;
49440;SDS011;35317;51.978;6.296;2022-07-01T15:40:21;2.83;;;0.52;;
49440;SDS011;35317;51.978;6.296;2022-07-01T15:45:22;2.17;;;0.57;;
49440;SDS011;35317;51.978;6.296;2022-07-01T15:50:24;3.97;;;1.30;;
49440;SDS011;35317;51.978;6.296;2022-07-01T15:55:25;6.30;;;0.95;;
49440;SDS011;35317;51.978;6.296;2022-07-01T16:00:26;3.40;;;1.00;;
49440;SDS011;35317;51.978;6.296;2022-07-01T16:05:27;5.25;;;1.13;;
49440;SDS011;35317;51.978;6.296;2022-07-01T16:10:33;2.78;;;1.10;;
49440;SDS011;35317;51.978;6.296;2022-07-01T16:15:44;3.90;;;1.00;;
49440;SDS011;35317;51.978;6.296;2022-07-01T16:20:47;3.50;;;1.00;;
49440;SDS011;35317;51.978;6.296;2022-07-01T16:25:48;4.60;;;0.93;;
49440;SDS011;35317;51.978;6.296;2022-07-01T16:30:49;4.50;;;1.20;;
49440;SDS011;35317;51.978;6.296;2022-07-01T16:41:28;5.30;;;0.90;;
49440;SDS011;35317;51.978;6.296;2022-07-01T16:46:48;5.88;;;1.30;;
49440;SDS011;35317;51.978;6.296;2022-07-01T16:51:50;2.90;;;1.27;;
49440;SDS011;35317;51.978;6.296;2022-07-01T16:56:57;2.00;;;0.90;;
49440;SDS011;35317;51.978;6.296;2022-07-01T17:02:02;3.47;;;1.10;;
49440;SDS011;35317;51.978;6.296;2022-07-01T17:07:04;4.07;;;1.02;;
49440;SDS011;35317;51.978;6.296;2022-07-01T17:12:10;3.38;;;1.35;;
49440;SDS011;35317;51.978;6.296;2022-07-01T17:22:16;3.63;;;0.95;;
49440;SDS011;35317;51.978;6.296;2022-07-01T17:27:57;5.38;;;1.05;;
49440;SDS011;35317;51.978;6.296;2022-07-01T17:33:40;3.25;;;0.90;;
49440;SDS011;35317;51.978;6.296;2022-07-01T17:38:45;2.28;;;0.80;;
49440;SDS011;35317;51.978;6.296;2022-07-01T17:43:56;4.57;;;1.05;;
49440;SDS011;35317;51.978;6.296;2022-07-01T17:49:01;4.18;;;1.10;;
49440;SDS011;35317;51.978;6.296;2022-07-01T17:54:04;3.83;;;1.00;;
49440;SDS011;35317;51.978;6.296;2022-07-01T17:59:05;2.65;;;0.77;;
49440;SDS011;35317;51.978;6.296;2022-07-01T18:04:06;3.10;;;0.88;;
49440;SDS011;35317;51.978;6.296;2022-07-01T18:09:08;3.65;;;0.80;;
49440;SDS011;35317;51.978;6.296;2022-07-01T18:14:30;5.28;;;1.00;;
49440;SDS011;35317;51.978;6.296;2022-07-01T18:25:20;4.18;;;0.82;;
49440;SDS011;35317;51.978;6.296;2022-07-01T18:30:24;3.00;;;0.77;;
49440;SDS011;35317;51.978;6.296;2022-07-01T18:35:31;2.80;;;0.90;;
49440;SDS011;35317;51.978;6.296;2022-07-01T18:40:34;5.45;;;0.88;;
49440;SDS011;35317;51.978;6.296;2022-07-01T18:45:36;3.30;;;0.68;;
49440;SDS011;35317;51.978;6.296;2022-07-01T18:50:37;3.35;;;1.08;;
49440;SDS011;35317;51.978;6.296;2022-07-01T18:55:38;3.08;;;0.90;;
49440;SDS011;35317;51.978;6.296;2022-07-01T19:00:39;5.28;;;0.90;;
49440;SDS011;35317;51.978;6.296;2022-07-01T19:05:40;3.88;;;0.95;;
49440;SDS011;35317;51.978;6.296;2022-07-01T19:10:41;2.35;;;0.70;;
49440;SDS011;35317;51.978;6.296;2022-07-01T19:15:41;3.08;;;0.60;;
49440;SDS011;35317;51.978;6.296;2022-07-01T19:20:43;3.45;;;0.95;;
49440;SDS011;35317;51.978;6.296;2022-07-01T19:25:43;4.30;;;0.70;;
49440;SDS011;35317;51.978;6.296;2022-07-01T19:30:46;4.80;;;0.80;;
49440;SDS011;35317;51.978;6.296;2022-07-01T19:35:46;4.85;;;0.88;;
49440;SDS011;35317;51.978;6.296;2022-07-01T19:40:47;4.07;;;0.90;;
49440;SDS011;35317;51.978;6.296;2022-07-01T19:45:48;2.90;;;0.88;;
49440;SDS011;35317;51.978;6.296;2022-07-01T19:50:49;2.42;;;0.70;;
49440;SDS011;35317;51.978;6.296;2022-07-01T19:55:50;6.20;;;1.00;;
49440;SDS011;35317;51.978;6.296;2022-07-01T20:00:51;3.45;;;1.20;;
49440;SDS011;35317;51.978;6.296;2022-07-01T20:05:51;4.63;;;1.45;;
49440;SDS011;35317;51.978;6.296;2022-07-01T20:10:52;4.22;;;1.20;;
49440;SDS011;35317;51.978;6.296;2022-07-01T20:15:53;6.25;;;1.20;;
49440;SDS011;35317;51.978;6.296;2022-07-01T20:20:55;2.67;;;1.08;;
49440;SDS011;35317;51.978;6.296;2022-07-01T20:25:56;2.60;;;1.25;;
49440;SDS011;35317;51.978;6.296;2022-07-01T20:30:57;3.90;;;1.10;;
49440;SDS011;35317;51.978;6.296;2022-07-01T20:35:57;4.55;;;1.40;;
49440;SDS011;35317;51.978;6.296;2022-07-01T20:40:58;5.22;;;1.85;;
49440;SDS011;35317;51.978;6.296;2022-07-01T20:45:59;5.85;;;1.50;;
49440;SDS011;35317;51.978;6.296;2022-07-01T20:51:00;5.88;;;2.05;;
49440;SDS011;35317;51.978;6.296;2022-07-01T20:56:03;3.70;;;1.60;;
49440;SDS011;35317;51.978;6.296;2022-07-01T21:01:05;3.97;;;1.67;;
49440;SDS011;35317;51.978;6.296;2022-07-01T21:06:11;5.50;;;1.80;;
49440;SDS011;35317;51.978;6.296;2022-07-01T21:11:12;5.20;;;2.50;;
49440;SDS011;35317;51.978;6.296;2022-07-01T21:16:13;4.22;;;1.77;;
49440;SDS011;35317;51.978;6.296;2022-07-01T21:21:13;4.70;;;1.65;;
49440;SDS011;35317;51.978;6.296;2022-07-01T21:26:14;6.85;;;1.92;;
49440;SDS011;35317;51.978;6.296;2022-07-01T21:31:15;4.95;;;2.35;;
49440;SDS011;35317;51.978;6.296;2022-07-01T21:36:16;7.50;;;2.22;;
49440;SDS011;35317;51.978;6.296;2022-07-01T21:41:18;9.48;;;3.35;;
49440;SDS011;35317;51.978;6.296;2022-07-01T21:46:19;6.28;;;2.30;;
49440;SDS011;35317;51.978;6.296;2022-07-01T21:51:21;10.80;;;3.13;;
49440;SDS011;35317;51.978;6.296;2022-07-01T21:56:22;5.55;;;2.30;;
49440;SDS011;35317;51.978;6.296;2022-07-01T22:01:23;5.70;;;2.30;;
49440;SDS011;35317;51.978;6.296;2022-07-01T22:06:38;5.20;;;2.30;;
49440;SDS011;35317;51.978;6.296;2022-07-01T22:12:13;6.20;;;3.00;;
49440;SDS011;35317;51.978;6.296;2022-07-01T22:17:23;5.20;;;2.70;;
49440;SDS011;35317;51.978;6.296;2022-07-01T22:22:47;9.13;;;3.40;;
49440;SDS011;35317;51.978;6.296;2022-07-01T22:28:00;6.15;;;2.95;;
49440;SDS011;35317;51.978;6.296;2022-07-01T22:33:20;9.70;;;3.30;;
49440;SDS011;35317;51.978;6.296;2022-07-01T22:38:44;7.53;;;2.88;;
49440;SDS011;35317;51.978;6.296;2022-07-01T22:44:06;6.82;;;3.35;;
49440;SDS011;35317;51.978;6.296;2022-07-01T22:49:12;8.18;;;3.42;;
49440;SDS011;35317;51.978;6.296;2022-07-01T23:00:04;8.65;;;4.88;;
49440;SDS011;35317;51.978;6.296;2022-07-01T23:05:10;6.75;;;4.05;;
49440;SDS011;35317;51.978;6.296;2022-07-01T23:10:18;7.10;;;4.60;;
49440;SDS011;35317;51.978;6.296;2022-07-01T23:15:35;7.95;;;5.13;;
49440;SDS011;35317;51.978;6.296;2022-07-01T23:20:58;10.75;;;5.18;;
49440;SDS011;35317;51.978;6.296;2022-07-01T23:26:02;8.02;;;5.10;;
49440;SDS011;35317;51.978;6.296;2022-07-01T23:31:03;10.13;;;5.43;;
49440;SDS011;35317;51.978;6.296;2022-07-01T23:36:07;8.23;;;5.03;;
49440;SDS011;35317;51.978;6.296;2022-07-01T23:41:08;14.68;;;5.53;;
49440;SDS011;35317;51.978;6.296;2022-07-01T23:46:17;10.25;;;5.50;;
49440;SDS011;35317;51.978;6.296;2022-07-01T23:51:18;10.88;;;6.13;;
49440;SDS011;35317;51.978;6.296;2022-07-01T23:56:19;11.52;;;6.25;;
